sensor_id;sensor_type;location;lat;lon;timestamp;temperature;humidity
52030;DHT22;38043;53.224;6.580;2023-05-09T00:00:01;14.20;99.90
52030;DHT22;38043;53.224;6.580;2023-05-09T00:02:26;14.20;99.90
52030;DHT22;38043;53.224;6.580;2023-05-09T00:04:53;14.20;99.90
52030;DHT22;38043;53.224;6.580;2023-05-09T00:07:19;14.20;99.90
52030;DHT22;38043;53.224;6.580;2023-05-09T00:09:45;14.10;99.90
52030;DHT22;38043;53.224;6.580;2023-05-09T00:12:11;14.10;99.90
52030;DHT22;38043;53.224;6.580;2023-05-09T00:14:36;14.10;99.90
52030;DHT22;38043;53.224;6.580;2023-05-09T00:17:03;14.00;99.90
52030;DHT22;38043;53.224;6.580;2023-05-09T00:19:29;14.00;99.90
52030;DHT22;38043;53.224;6.580;2023-05-09T00:21:55;14.00;99.90
52030;DHT22;38043;53.224;6.580;2023-05-09T00:24:24;14.00;99.90
52030;DHT22;38043;53.224;6.580;2023-05-09T00:26:49;14.00;99.90
52030;DHT22;38043;53.224;6.580;2023-05-09T00:29:15;14.00;99.90
52030;DHT22;38043;53.224;6.580;2023-05-09T00:31:40;14.00;99.90
52030;DHT22;38043;53.224;6.580;2023-05-09T00:34:06;13.90;99.90
52030;DHT22;38043;53.224;6.580;2023-05-09T00:36:31;14.00;99.90
52030;DHT22;38043;53.224;6.580;2023-05-09T00:38:57;14.00;99.90
52030;DHT22;38043;53.224;6.580;2023-05-09T00:41:23;14.00;99.90
52030;DHT22;38043;53.224;6.580;2023-05-09T00:43:48;14.00;99.90
52030;DHT22;38043;53.224;6.580;2023-05-09T00:46:14;14.00;99.90
52030;DHT22;38043;53.224;6.580;2023-05-09T00:48:40;14.00;99.90
52030;DHT22;38043;53.224;6.580;2023-05-09T00:51:05;13.90;99.90
52030;DHT22;38043;53.224;6.580;2023-05-09T00:53:31;14.00;99.90
52030;DHT22;38043;53.224;6.580;2023-05-09T00:55:58;14.00;99.90
52030;DHT22;38043;53.224;6.580;2023-05-09T00:58:27;14.00;99.90
52030;DHT22;38043;53.224;6.580;2023-05-09T01:00:54;13.90;99.90
52030;DHT22;38043;53.224;6.580;2023-05-09T01:03:19;13.90;99.90
52030;DHT22;38043;53.224;6.580;2023-05-09T01:05:49;13.90;99.90
52030;DHT22;38043;53.224;6.580;2023-05-09T01:08:21;13.90;99.90
52030;DHT22;38043;53.224;6.580;2023-05-09T01:11:00;13.90;99.90
52030;DHT22;38043;53.224;6.580;2023-05-09T01:16:13;13.90;99.90
52030;DHT22;38043;53.224;6.580;2023-05-09T01:18:46;13.90;99.90
52030;DHT22;38043;53.224;6.580;2023-05-09T01:21:20;13.90;99.90
52030;DHT22;38043;53.224;6.580;2023-05-09T01:26:42;13.90;99.90
52030;DHT22;38043;53.224;6.580;2023-05-09T01:31:47;13.90;99.90
52030;DHT22;38043;53.224;6.580;2023-05-09T01:34:13;13.90;99.90
52030;DHT22;38043;53.224;6.580;2023-05-09T01:36:40;13.90;99.90
52030;DHT22;38043;53.224;6.580;2023-05-09T01:39:06;13.90;99.90
52030;DHT22;38043;53.224;6.580;2023-05-09T01:41:35;14.00;99.90
52030;DHT22;38043;53.224;6.580;2023-05-09T01:44:02;13.90;99.90
52030;DHT22;38043;53.224;6.580;2023-05-09T01:46:28;13.90;99.90
52030;DHT22;38043;53.224;6.580;2023-05-09T01:48:55;13.90;99.90
52030;DHT22;38043;53.224;6.580;2023-05-09T01:51:21;13.80;99.90
52030;DHT22;38043;53.224;6.580;2023-05-09T01:53:48;13.90;99.90
52030;DHT22;38043;53.224;6.580;2023-05-09T01:56:14;13.90;99.90
52030;DHT22;38043;53.224;6.580;2023-05-09T01:58:41;13.90;99.90
52030;DHT22;38043;53.224;6.580;2023-05-09T02:01:06;13.90;99.90
52030;DHT22;38043;53.224;6.580;2023-05-09T02:03:32;13.90;99.90
52030;DHT22;38043;53.224;6.580;2023-05-09T02:05:58;13.90;99.90
52030;DHT22;38043;53.224;6.580;2023-05-09T02:08:25;13.90;99.90
52030;DHT22;38043;53.224;6.580;2023-05-09T02:10:50;13.90;99.90
52030;DHT22;38043;53.224;6.580;2023-05-09T02:13:17;13.90;99.90
52030;DHT22;38043;53.224;6.580;2023-05-09T02:15:43;13.90;99.90
52030;DHT22;38043;53.224;6.580;2023-05-09T02:18:08;13.90;99.90
52030;DHT22;38043;53.224;6.580;2023-05-09T02:20:34;13.90;99.90
52030;DHT22;38043;53.224;6.580;2023-05-09T02:23:00;13.90;99.90
52030;DHT22;38043;53.224;6.580;2023-05-09T02:25:26;14.00;99.90
52030;DHT22;38043;53.224;6.580;2023-05-09T02:27:52;14.00;99.90
52030;DHT22;38043;53.224;6.580;2023-05-09T02:30:20;14.00;99.90
52030;DHT22;38043;53.224;6.580;2023-05-09T02:32:50;14.00;99.90
52030;DHT22;38043;53.224;6.580;2023-05-09T02:35:17;14.00;99.90
52030;DHT22;38043;53.224;6.580;2023-05-09T02:37:44;14.00;99.90
52030;DHT22;38043;53.224;6.580;2023-05-09T02:40:10;14.00;99.90
52030;DHT22;38043;53.224;6.580;2023-05-09T02:42:36;14.10;99.90
52030;DHT22;38043;53.224;6.580;2023-05-09T02:45:01;14.10;99.90
52030;DHT22;38043;53.224;6.580;2023-05-09T02:47:27;14.10;99.90
52030;DHT22;38043;53.224;6.580;2023-05-09T02:49:52;14.10;99.90
52030;DHT22;38043;53.224;6.580;2023-05-09T02:52:18;14.10;99.90
52030;DHT22;38043;53.224;6.580;2023-05-09T02:54:43;14.10;99.90
52030;DHT22;38043;53.224;6.580;2023-05-09T02:57:09;14.10;99.90
52030;DHT22;38043;53.224;6.580;2023-05-09T02:59:35;14.10;99.90
52030;DHT22;38043;53.224;6.580;2023-05-09T03:02:00;14.10;99.90
52030;DHT22;38043;53.224;6.580;2023-05-09T03:04:26;14.10;99.90
52030;DHT22;38043;53.224;6.580;2023-05-09T03:06:52;14.10;99.90
52030;DHT22;38043;53.224;6.580;2023-05-09T03:09:18;14.10;99.90
52030;DHT22;38043;53.224;6.580;2023-05-09T03:11:43;14.10;99.90
52030;DHT22;38043;53.224;6.580;2023-05-09T03:14:09;14.10;99.90
52030;DHT22;38043;53.224;6.580;2023-05-09T03:16:35;14.10;99.90
52030;DHT22;38043;53.224;6.580;2023-05-09T03:19:02;14.10;99.90
52030;DHT22;38043;53.224;6.580;2023-05-09T03:21:27;14.10;99.90
52030;DHT22;38043;53.224;6.580;2023-05-09T03:23:53;14.00;99.90
52030;DHT22;38043;53.224;6.580;2023-05-09T03:26:19;14.10;99.90
52030;DHT22;38043;53.224;6.580;2023-05-09T03:28:45;14.00;99.90
52030;DHT22;38043;53.224;6.580;2023-05-09T03:31:11;14.10;99.90
52030;DHT22;38043;53.224;6.580;2023-05-09T03:33:37;14.10;99.90
52030;DHT22;38043;53.224;6.580;2023-05-09T03:36:02;14.10;99.90
52030;DHT22;38043;53.224;6.580;2023-05-09T03:38:28;14.00;99.90
52030;DHT22;38043;53.224;6.580;2023-05-09T03:40:53;14.10;99.90
52030;DHT22;38043;53.224;6.580;2023-05-09T03:43:19;14.10;99.90
52030;DHT22;38043;53.224;6.580;2023-05-09T03:45:44;14.10;99.90
52030;DHT22;38043;53.224;6.580;2023-05-09T03:48:10;14.10;99.90
52030;DHT22;38043;53.224;6.580;2023-05-09T03:50:36;14.10;99.90
52030;DHT22;38043;53.224;6.580;2023-05-09T03:53:02;14.10;99.90
52030;DHT22;38043;53.224;6.580;2023-05-09T03:55:28;14.10;99.90
52030;DHT22;38043;53.224;6.580;2023-05-09T03:57:54;14.10;99.90
52030;DHT22;38043;53.224;6.580;2023-05-09T04:00:20;14.10;99.90
52030;DHT22;38043;53.224;6.580;2023-05-09T04:02:46;14.10;99.90
52030;DHT22;38043;53.224;6.580;2023-05-09T04:05:12;14.10;99.90
52030;DHT22;38043;53.224;6.580;2023-05-09T04:07:38;14.10;99.90
52030;DHT22;38043;53.224;6.580;2023-05-09T04:10:03;14.20;99.90
52030;DHT22;38043;53.224;6.580;2023-05-09T04:12:29;14.20;99.90
52030;DHT22;38043;53.224;6.580;2023-05-09T04:14:54;14.20;99.90
52030;DHT22;38043;53.224;6.580;2023-05-09T04:17:20;14.20;99.90
52030;DHT22;38043;53.224;6.580;2023-05-09T04:19:46;14.20;99.90
52030;DHT22;38043;53.224;6.580;2023-05-09T04:22:11;14.20;99.90
52030;DHT22;38043;53.224;6.580;2023-05-09T04:24:37;14.20;99.90
52030;DHT22;38043;53.224;6.580;2023-05-09T04:27:03;14.20;99.90
52030;DHT22;38043;53.224;6.580;2023-05-09T04:29:28;14.20;99.90
52030;DHT22;38043;53.224;6.580;2023-05-09T04:31:54;14.30;99.90
52030;DHT22;38043;53.224;6.580;2023-05-09T04:34:21;14.30;99.90
52030;DHT22;38043;53.224;6.580;2023-05-09T04:36:47;14.30;99.90
52030;DHT22;38043;53.224;6.580;2023-05-09T04:39:15;14.30;99.90
52030;DHT22;38043;53.224;6.580;2023-05-09T04:41:40;14.30;99.90
52030;DHT22;38043;53.224;6.580;2023-05-09T04:44:08;14.30;99.90
52030;DHT22;38043;53.224;6.580;2023-05-09T04:46:34;14.30;99.90
52030;DHT22;38043;53.224;6.580;2023-05-09T04:49:00;14.40;99.90
52030;DHT22;38043;53.224;6.580;2023-05-09T04:51:26;14.40;99.90
52030;DHT22;38043;53.224;6.580;2023-05-09T04:53:51;14.40;99.90
52030;DHT22;38043;53.224;6.580;2023-05-09T04:56:17;14.40;99.90
52030;DHT22;38043;53.224;6.580;2023-05-09T04:58:42;14.40;99.90
52030;DHT22;38043;53.224;6.580;2023-05-09T05:01:08;14.40;99.90
52030;DHT22;38043;53.224;6.580;2023-05-09T05:03:33;14.40;99.90
52030;DHT22;38043;53.224;6.580;2023-05-09T05:05:59;14.50;99.90
52030;DHT22;38043;53.224;6.580;2023-05-09T05:08:25;14.50;99.90
52030;DHT22;38043;53.224;6.580;2023-05-09T05:10:50;14.60;99.90
52030;DHT22;38043;53.224;6.580;2023-05-09T05:13:16;14.60;99.90
52030;DHT22;38043;53.224;6.580;2023-05-09T05:15:41;14.60;99.90
52030;DHT22;38043;53.224;6.580;2023-05-09T05:18:07;14.70;99.90
52030;DHT22;38043;53.224;6.580;2023-05-09T05:20:33;14.70;99.90
52030;DHT22;38043;53.224;6.580;2023-05-09T05:22:58;14.80;99.90
52030;DHT22;38043;53.224;6.580;2023-05-09T05:25:24;14.80;99.90
52030;DHT22;38043;53.224;6.580;2023-05-09T05:27:50;14.80;99.90
52030;DHT22;38043;53.224;6.580;2023-05-09T05:30:15;14.90;99.90
52030;DHT22;38043;53.224;6.580;2023-05-09T05:32:41;14.90;99.90
52030;DHT22;38043;53.224;6.580;2023-05-09T05:35:08;14.90;99.90
52030;DHT22;38043;53.224;6.580;2023-05-09T05:37:36;14.90;99.90
52030;DHT22;38043;53.224;6.580;2023-05-09T05:40:02;14.90;99.90
52030;DHT22;38043;53.224;6.580;2023-05-09T05:42:27;14.90;99.90
52030;DHT22;38043;53.224;6.580;2023-05-09T05:44:53;14.90;99.90
52030;DHT22;38043;53.224;6.580;2023-05-09T05:47:19;14.90;99.90
52030;DHT22;38043;53.224;6.580;2023-05-09T05:49:44;14.90;99.90
52030;DHT22;38043;53.224;6.580;2023-05-09T05:52:10;14.90;99.90
52030;DHT22;38043;53.224;6.580;2023-05-09T05:54:35;14.90;99.90
52030;DHT22;38043;53.224;6.580;2023-05-09T05:57:01;14.90;99.90
52030;DHT22;38043;53.224;6.580;2023-05-09T05:59:26;14.90;99.90
52030;DHT22;38043;53.224;6.580;2023-05-09T06:01:52;14.90;99.90
52030;DHT22;38043;53.224;6.580;2023-05-09T06:04:17;14.90;99.90
52030;DHT22;38043;53.224;6.580;2023-05-09T06:06:43;14.90;99.90
52030;DHT22;38043;53.224;6.580;2023-05-09T06:09:08;14.90;99.90
52030;DHT22;38043;53.224;6.580;2023-05-09T06:11:34;14.90;99.90
52030;DHT22;38043;53.224;6.580;2023-05-09T06:13:59;14.90;99.90
52030;DHT22;38043;53.224;6.580;2023-05-09T06:16:25;14.90;99.90
52030;DHT22;38043;53.224;6.580;2023-05-09T06:18:51;14.90;99.90
52030;DHT22;38043;53.224;6.580;2023-05-09T06:21:17;14.90;99.90
52030;DHT22;38043;53.224;6.580;2023-05-09T06:23:42;14.90;99.90
52030;DHT22;38043;53.224;6.580;2023-05-09T06:26:08;15.00;99.90
52030;DHT22;38043;53.224;6.580;2023-05-09T06:28:33;15.00;99.90
52030;DHT22;38043;53.224;6.580;2023-05-09T06:30:59;15.00;99.90
52030;DHT22;38043;53.224;6.580;2023-05-09T06:33:25;15.10;99.90
52030;DHT22;38043;53.224;6.580;2023-05-09T06:35:51;15.20;99.90
52030;DHT22;38043;53.224;6.580;2023-05-09T06:38:16;15.20;99.90
52030;DHT22;38043;53.224;6.580;2023-05-09T06:40:42;15.20;99.90
52030;DHT22;38043;53.224;6.580;2023-05-09T06:43:08;15.20;99.90
52030;DHT22;38043;53.224;6.580;2023-05-09T06:45:33;15.10;99.90
52030;DHT22;38043;53.224;6.580;2023-05-09T06:47:59;15.20;99.90
52030;DHT22;38043;53.224;6.580;2023-05-09T06:50:25;15.20;99.90
52030;DHT22;38043;53.224;6.580;2023-05-09T06:52:50;15.30;99.90
52030;DHT22;38043;53.224;6.580;2023-05-09T06:55:16;15.30;99.90
52030;DHT22;38043;53.224;6.580;2023-05-09T06:57:41;15.30;99.90
52030;DHT22;38043;53.224;6.580;2023-05-09T07:00:07;15.30;99.90
52030;DHT22;38043;53.224;6.580;2023-05-09T07:02:33;15.30;99.90
52030;DHT22;38043;53.224;6.580;2023-05-09T07:04:59;15.30;99.90
52030;DHT22;38043;53.224;6.580;2023-05-09T07:07:24;15.30;99.90
52030;DHT22;38043;53.224;6.580;2023-05-09T07:09:50;15.30;99.90
52030;DHT22;38043;53.224;6.580;2023-05-09T07:12:16;15.30;99.90
52030;DHT22;38043;53.224;6.580;2023-05-09T07:14:42;15.30;99.90
52030;DHT22;38043;53.224;6.580;2023-05-09T07:17:07;15.30;99.90
52030;DHT22;38043;53.224;6.580;2023-05-09T07:19:33;15.40;99.90
52030;DHT22;38043;53.224;6.580;2023-05-09T07:22:01;15.40;99.90
52030;DHT22;38043;53.224;6.580;2023-05-09T07:24:27;15.40;99.90
52030;DHT22;38043;53.224;6.580;2023-05-09T07:26:52;15.40;99.90
52030;DHT22;38043;53.224;6.580;2023-05-09T07:29:21;15.40;99.90
52030;DHT22;38043;53.224;6.580;2023-05-09T07:31:46;15.40;99.90
52030;DHT22;38043;53.224;6.580;2023-05-09T07:34:12;15.40;99.90
52030;DHT22;38043;53.224;6.580;2023-05-09T07:36:37;15.40;99.90
52030;DHT22;38043;53.224;6.580;2023-05-09T07:39:03;15.50;99.90
52030;DHT22;38043;53.224;6.580;2023-05-09T07:41:29;15.50;99.90
52030;DHT22;38043;53.224;6.580;2023-05-09T07:43:55;15.60;99.90
52030;DHT22;38043;53.224;6.580;2023-05-09T07:46:21;15.60;99.90
52030;DHT22;38043;53.224;6.580;2023-05-09T07:48:46;15.70;99.90
52030;DHT22;38043;53.224;6.580;2023-05-09T07:51:12;15.70;99.90
52030;DHT22;38043;53.224;6.580;2023-05-09T07:53:37;15.80;99.90
52030;DHT22;38043;53.224;6.580;2023-05-09T07:56:03;15.90;99.90
52030;DHT22;38043;53.224;6.580;2023-05-09T07:58:31;15.90;99.90
52030;DHT22;38043;53.224;6.580;2023-05-09T08:00:57;16.00;99.90
52030;DHT22;38043;53.224;6.580;2023-05-09T08:03:23;15.90;99.90
52030;DHT22;38043;53.224;6.580;2023-05-09T08:05:51;15.90;99.90
52030;DHT22;38043;53.224;6.580;2023-05-09T08:08:17;15.90;99.90
52030;DHT22;38043;53.224;6.580;2023-05-09T08:10:42;15.90;99.90
52030;DHT22;38043;53.224;6.580;2023-05-09T08:13:08;15.90;99.90
52030;DHT22;38043;53.224;6.580;2023-05-09T08:15:33;15.90;99.90
52030;DHT22;38043;53.224;6.580;2023-05-09T08:17:59;16.00;99.90
52030;DHT22;38043;53.224;6.580;2023-05-09T08:20:24;16.00;99.90
52030;DHT22;38043;53.224;6.580;2023-05-09T08:22:50;16.10;99.90
52030;DHT22;38043;53.224;6.580;2023-05-09T08:25:15;16.10;99.90
52030;DHT22;38043;53.224;6.580;2023-05-09T08:27:44;16.10;99.90
52030;DHT22;38043;53.224;6.580;2023-05-09T08:30:09;16.10;99.90
52030;DHT22;38043;53.224;6.580;2023-05-09T08:32:35;16.10;99.90
52030;DHT22;38043;53.224;6.580;2023-05-09T08:35:01;16.10;99.90
52030;DHT22;38043;53.224;6.580;2023-05-09T08:37:27;16.20;99.90
52030;DHT22;38043;53.224;6.580;2023-05-09T08:39:53;16.20;99.90
52030;DHT22;38043;53.224;6.580;2023-05-09T08:42:18;16.20;99.90
52030;DHT22;38043;53.224;6.580;2023-05-09T08:44:47;16.30;99.90
52030;DHT22;38043;53.224;6.580;2023-05-09T08:47:12;16.30;99.90
52030;DHT22;38043;53.224;6.580;2023-05-09T08:49:38;16.30;99.90
52030;DHT22;38043;53.224;6.580;2023-05-09T08:52:04;16.30;99.90
52030;DHT22;38043;53.224;6.580;2023-05-09T08:54:30;16.40;99.90
52030;DHT22;38043;53.224;6.580;2023-05-09T08:56:55;16.40;99.90
52030;DHT22;38043;53.224;6.580;2023-05-09T08:59:22;16.40;99.90
52030;DHT22;38043;53.224;6.580;2023-05-09T09:01:47;16.50;99.90
52030;DHT22;38043;53.224;6.580;2023-05-09T09:04:13;16.50;99.90
52030;DHT22;38043;53.224;6.580;2023-05-09T09:06:39;16.50;99.90
52030;DHT22;38043;53.224;6.580;2023-05-09T09:09:05;16.60;99.90
52030;DHT22;38043;53.224;6.580;2023-05-09T09:11:33;16.60;99.90
52030;DHT22;38043;53.224;6.580;2023-05-09T09:13:59;16.70;99.90
52030;DHT22;38043;53.224;6.580;2023-05-09T09:16:25;16.80;99.90
52030;DHT22;38043;53.224;6.580;2023-05-09T09:18:53;16.90;99.90
52030;DHT22;38043;53.224;6.580;2023-05-09T09:21:19;17.00;99.90
52030;DHT22;38043;53.224;6.580;2023-05-09T09:23:45;17.10;99.90
52030;DHT22;38043;53.224;6.580;2023-05-09T09:26:12;17.10;99.90
52030;DHT22;38043;53.224;6.580;2023-05-09T09:28:37;17.10;99.90
52030;DHT22;38043;53.224;6.580;2023-05-09T09:31:17;17.00;99.90
52030;DHT22;38043;53.224;6.580;2023-05-09T09:33:43;17.00;99.90
52030;DHT22;38043;53.224;6.580;2023-05-09T09:36:08;17.00;99.90
52030;DHT22;38043;53.224;6.580;2023-05-09T09:38:38;17.10;99.90
52030;DHT22;38043;53.224;6.580;2023-05-09T09:41:04;17.10;99.90
52030;DHT22;38043;53.224;6.580;2023-05-09T09:43:30;17.30;99.90
52030;DHT22;38043;53.224;6.580;2023-05-09T09:45:56;17.30;99.90
52030;DHT22;38043;53.224;6.580;2023-05-09T09:48:25;17.30;99.90
52030;DHT22;38043;53.224;6.580;2023-05-09T09:50:54;17.30;99.90
52030;DHT22;38043;53.224;6.580;2023-05-09T09:53:21;17.20;99.90
52030;DHT22;38043;53.224;6.580;2023-05-09T09:55:50;17.20;99.90
52030;DHT22;38043;53.224;6.580;2023-05-09T09:58:16;17.20;99.90
52030;DHT22;38043;53.224;6.580;2023-05-09T10:00:42;17.20;99.90
52030;DHT22;38043;53.224;6.580;2023-05-09T10:03:14;17.20;99.90
52030;DHT22;38043;53.224;6.580;2023-05-09T10:05:40;17.10;99.90
52030;DHT22;38043;53.224;6.580;2023-05-09T10:08:06;17.00;99.90
52030;DHT22;38043;53.224;6.580;2023-05-09T10:10:35;17.00;99.90
52030;DHT22;38043;53.224;6.580;2023-05-09T10:13:02;17.00;99.90
52030;DHT22;38043;53.224;6.580;2023-05-09T10:15:28;17.10;99.90
52030;DHT22;38043;53.224;6.580;2023-05-09T10:17:56;17.10;99.90
52030;DHT22;38043;53.224;6.580;2023-05-09T10:20:22;17.20;99.90
52030;DHT22;38043;53.224;6.580;2023-05-09T10:22:48;17.30;99.90
52030;DHT22;38043;53.224;6.580;2023-05-09T10:25:18;17.30;99.90
52030;DHT22;38043;53.224;6.580;2023-05-09T10:27:45;17.30;99.90
52030;DHT22;38043;53.224;6.580;2023-05-09T10:30:15;17.40;99.90
52030;DHT22;38043;53.224;6.580;2023-05-09T10:32:51;17.50;99.90
52030;DHT22;38043;53.224;6.580;2023-05-09T10:35:17;17.60;99.90
52030;DHT22;38043;53.224;6.580;2023-05-09T10:37:44;17.70;99.90
52030;DHT22;38043;53.224;6.580;2023-05-09T10:40:09;17.80;99.90
52030;DHT22;38043;53.224;6.580;2023-05-09T10:42:42;18.00;99.90
52030;DHT22;38043;53.224;6.580;2023-05-09T10:45:08;18.00;99.90
52030;DHT22;38043;53.224;6.580;2023-05-09T10:47:34;18.00;99.90
52030;DHT22;38043;53.224;6.580;2023-05-09T10:50:00;18.10;99.90
52030;DHT22;38043;53.224;6.580;2023-05-09T10:52:32;18.20;99.90
52030;DHT22;38043;53.224;6.580;2023-05-09T10:54:59;18.40;99.90
52030;DHT22;38043;53.224;6.580;2023-05-09T10:57:28;18.50;99.90
52030;DHT22;38043;53.224;6.580;2023-05-09T10:59:54;18.60;99.90
52030;DHT22;38043;53.224;6.580;2023-05-09T11:02:21;18.70;99.90
52030;DHT22;38043;53.224;6.580;2023-05-09T11:04:48;18.60;99.90
52030;DHT22;38043;53.224;6.580;2023-05-09T11:07:33;18.60;99.90
52030;DHT22;38043;53.224;6.580;2023-05-09T11:10:09;18.50;99.90
52030;DHT22;38043;53.224;6.580;2023-05-09T11:12:51;18.50;99.90
52030;DHT22;38043;53.224;6.580;2023-05-09T11:15:17;18.50;99.90
52030;DHT22;38043;53.224;6.580;2023-05-09T11:17:42;18.50;99.90
52030;DHT22;38043;53.224;6.580;2023-05-09T11:20:08;18.50;99.90
52030;DHT22;38043;53.224;6.580;2023-05-09T11:22:40;18.50;99.90
52030;DHT22;38043;53.224;6.580;2023-05-09T11:25:09;18.50;99.90
52030;DHT22;38043;53.224;6.580;2023-05-09T11:27:45;18.40;99.90
52030;DHT22;38043;53.224;6.580;2023-05-09T11:30:11;18.40;99.90
52030;DHT22;38043;53.224;6.580;2023-05-09T11:35:10;18.40;99.90
52030;DHT22;38043;53.224;6.580;2023-05-09T11:40:34;18.30;99.90
52030;DHT22;38043;53.224;6.580;2023-05-09T11:43:00;18.20;99.90
52030;DHT22;38043;53.224;6.580;2023-05-09T11:45:26;18.10;99.90
52030;DHT22;38043;53.224;6.580;2023-05-09T11:47:52;18.10;99.90
52030;DHT22;38043;53.224;6.580;2023-05-09T11:50:19;18.20;99.90
52030;DHT22;38043;53.224;6.580;2023-05-09T11:52:45;18.20;99.90
52030;DHT22;38043;53.224;6.580;2023-05-09T11:55:12;18.40;99.90
52030;DHT22;38043;53.224;6.580;2023-05-09T11:57:39;18.50;99.90
52030;DHT22;38043;53.224;6.580;2023-05-09T12:00:05;18.60;99.90
52030;DHT22;38043;53.224;6.580;2023-05-09T12:02:31;18.70;99.90
52030;DHT22;38043;53.224;6.580;2023-05-09T12:05:06;18.90;99.90
52030;DHT22;38043;53.224;6.580;2023-05-09T12:07:32;19.00;99.90
52030;DHT22;38043;53.224;6.580;2023-05-09T12:09:58;19.10;99.90
52030;DHT22;38043;53.224;6.580;2023-05-09T12:12:26;19.20;99.90
52030;DHT22;38043;53.224;6.580;2023-05-09T12:14:52;19.30;99.90
52030;DHT22;38043;53.224;6.580;2023-05-09T12:17:18;19.30;99.90
52030;DHT22;38043;53.224;6.580;2023-05-09T12:19:43;19.40;99.90
52030;DHT22;38043;53.224;6.580;2023-05-09T12:22:09;19.40;99.90
52030;DHT22;38043;53.224;6.580;2023-05-09T12:24:35;19.40;99.90
52030;DHT22;38043;53.224;6.580;2023-05-09T12:27:01;19.40;99.90
52030;DHT22;38043;53.224;6.580;2023-05-09T12:29:27;19.40;99.90
52030;DHT22;38043;53.224;6.580;2023-05-09T12:31:54;19.50;99.90
52030;DHT22;38043;53.224;6.580;2023-05-09T12:34:20;19.50;99.90
52030;DHT22;38043;53.224;6.580;2023-05-09T12:36:46;19.60;99.90
52030;DHT22;38043;53.224;6.580;2023-05-09T12:39:18;19.60;99.90
52030;DHT22;38043;53.224;6.580;2023-05-09T12:41:49;19.70;99.90
52030;DHT22;38043;53.224;6.580;2023-05-09T12:44:21;19.60;99.90
52030;DHT22;38043;53.224;6.580;2023-05-09T12:46:57;19.60;99.90
52030;DHT22;38043;53.224;6.580;2023-05-09T12:49:24;19.50;99.90
52030;DHT22;38043;53.224;6.580;2023-05-09T12:51:50;19.50;99.90
52030;DHT22;38043;53.224;6.580;2023-05-09T12:54:23;19.60;99.90
52030;DHT22;38043;53.224;6.580;2023-05-09T12:56:53;19.60;99.90
52030;DHT22;38043;53.224;6.580;2023-05-09T12:59:21;19.60;99.90
52030;DHT22;38043;53.224;6.580;2023-05-09T13:01:52;19.60;99.90
52030;DHT22;38043;53.224;6.580;2023-05-09T13:04:18;19.70;99.90
52030;DHT22;38043;53.224;6.580;2023-05-09T13:06:48;19.70;99.90
52030;DHT22;38043;53.224;6.580;2023-05-09T13:09:14;19.70;99.90
52030;DHT22;38043;53.224;6.580;2023-05-09T13:11:40;19.80;99.90
52030;DHT22;38043;53.224;6.580;2023-05-09T13:14:06;19.70;99.90
52030;DHT22;38043;53.224;6.580;2023-05-09T13:16:33;19.70;99.90
52030;DHT22;38043;53.224;6.580;2023-05-09T13:18:59;19.60;99.90
52030;DHT22;38043;53.224;6.580;2023-05-09T13:21:26;19.50;99.90
52030;DHT22;38043;53.224;6.580;2023-05-09T13:23:51;19.50;99.90
52030;DHT22;38043;53.224;6.580;2023-05-09T13:26:17;19.40;99.90
52030;DHT22;38043;53.224;6.580;2023-05-09T13:28:42;19.30;99.90
52030;DHT22;38043;53.224;6.580;2023-05-09T13:31:08;19.20;99.90
52030;DHT22;38043;53.224;6.580;2023-05-09T13:33:33;19.10;99.90
52030;DHT22;38043;53.224;6.580;2023-05-09T13:35:59;19.00;99.90
52030;DHT22;38043;53.224;6.580;2023-05-09T13:38:24;19.00;99.90
52030;DHT22;38043;53.224;6.580;2023-05-09T13:40:50;18.90;99.90
52030;DHT22;38043;53.224;6.580;2023-05-09T13:43:15;18.80;99.90
52030;DHT22;38043;53.224;6.580;2023-05-09T13:45:41;18.70;99.90
52030;DHT22;38043;53.224;6.580;2023-05-09T13:48:06;18.70;99.90
52030;DHT22;38043;53.224;6.580;2023-05-09T13:50:32;18.70;99.90
52030;DHT22;38043;53.224;6.580;2023-05-09T13:52:58;18.60;99.90
52030;DHT22;38043;53.224;6.580;2023-05-09T13:55:23;18.50;99.90
52030;DHT22;38043;53.224;6.580;2023-05-09T13:57:50;18.40;99.90
52030;DHT22;38043;53.224;6.580;2023-05-09T14:00:16;18.40;99.90
52030;DHT22;38043;53.224;6.580;2023-05-09T14:02:42;18.30;99.90
52030;DHT22;38043;53.224;6.580;2023-05-09T14:05:07;18.30;99.90
52030;DHT22;38043;53.224;6.580;2023-05-09T14:07:33;18.30;99.90
52030;DHT22;38043;53.224;6.580;2023-05-09T14:09:59;18.30;99.90
52030;DHT22;38043;53.224;6.580;2023-05-09T14:12:26;18.20;99.90
52030;DHT22;38043;53.224;6.580;2023-05-09T14:14:51;18.20;99.90
52030;DHT22;38043;53.224;6.580;2023-05-09T14:17:17;18.20;99.90
52030;DHT22;38043;53.224;6.580;2023-05-09T14:19:42;18.10;99.90
52030;DHT22;38043;53.224;6.580;2023-05-09T14:22:08;18.10;99.90
52030;DHT22;38043;53.224;6.580;2023-05-09T14:24:33;18.10;99.90
52030;DHT22;38043;53.224;6.580;2023-05-09T14:27:00;18.10;99.90
52030;DHT22;38043;53.224;6.580;2023-05-09T14:29:26;18.10;99.90
52030;DHT22;38043;53.224;6.580;2023-05-09T14:31:52;18.00;99.90
52030;DHT22;38043;53.224;6.580;2023-05-09T14:34:17;18.00;99.90
52030;DHT22;38043;53.224;6.580;2023-05-09T14:36:43;18.00;99.90
52030;DHT22;38043;53.224;6.580;2023-05-09T14:39:08;17.90;99.90
52030;DHT22;38043;53.224;6.580;2023-05-09T14:41:35;17.80;99.90
52030;DHT22;38043;53.224;6.580;2023-05-09T14:44:01;17.70;99.90
52030;DHT22;38043;53.224;6.580;2023-05-09T14:46:26;17.60;99.90
52030;DHT22;38043;53.224;6.580;2023-05-09T14:48:52;17.60;99.90
52030;DHT22;38043;53.224;6.580;2023-05-09T14:51:18;17.50;99.90
52030;DHT22;38043;53.224;6.580;2023-05-09T14:53:43;17.50;99.90
52030;DHT22;38043;53.224;6.580;2023-05-09T14:56:09;17.50;99.90
52030;DHT22;38043;53.224;6.580;2023-05-09T14:58:35;17.40;99.90
52030;DHT22;38043;53.224;6.580;2023-05-09T15:01:01;17.40;99.90
52030;DHT22;38043;53.224;6.580;2023-05-09T15:03:28;17.30;99.90
52030;DHT22;38043;53.224;6.580;2023-05-09T15:05:53;17.30;99.90
52030;DHT22;38043;53.224;6.580;2023-05-09T15:08:19;17.20;99.90
52030;DHT22;38043;53.224;6.580;2023-05-09T15:10:45;17.10;99.90
52030;DHT22;38043;53.224;6.580;2023-05-09T15:13:10;17.10;99.90
52030;DHT22;38043;53.224;6.580;2023-05-09T15:15:37;17.10;99.90
52030;DHT22;38043;53.224;6.580;2023-05-09T15:18:04;17.10;99.90
52030;DHT22;38043;53.224;6.580;2023-05-09T15:20:29;17.10;99.90
52030;DHT22;38043;53.224;6.580;2023-05-09T15:22:55;17.10;99.90
52030;DHT22;38043;53.224;6.580;2023-05-09T15:25:20;17.10;99.90
52030;DHT22;38043;53.224;6.580;2023-05-09T15:27:47;17.10;99.90
52030;DHT22;38043;53.224;6.580;2023-05-09T15:30:14;17.10;99.90
52030;DHT22;38043;53.224;6.580;2023-05-09T15:32:40;17.00;99.90
52030;DHT22;38043;53.224;6.580;2023-05-09T15:35:06;17.00;99.90
52030;DHT22;38043;53.224;6.580;2023-05-09T15:37:31;17.00;99.90